sensor_id;sensor_type;location;lat;lon;timestamp;pressure;altitude;pressure_sealevel;temperature;humidity
21781;BME280;52576;53.614;9.894;2022-12-16T00:01:06;100568.97;;;-1.37;100.00
21781;BME280;52576;53.614;9.894;2022-12-16T00:02:10;100572.28;;;-1.35;100.00
21781;BME280;52576;53.614;9.894;2022-12-16T00:03:12;100567.75;;;-1.33;100.00
21781;BME280;52576;53.614;9.894;2022-12-16T00:04:15;100571.03;;;-1.31;100.00
21781;BME280;52576;53.614;9.894;2022-12-16T00:05:18;100577.97;;;-1.30;100.00
21781;BME280;52576;53.614;9.894;2022-12-16T00:06:23;100568.41;;;-1.31;100.00
21781;BME280;52576;53.614;9.894;2022-12-16T00:07:26;100569.94;;;-1.28;100.00
21781;BME280;52576;53.614;9.894;2022-12-16T00:08:34;100565.53;;;-1.27;100.00
21781;BME280;52576;53.614;9.894;2022-12-16T00:09:38;100568.16;;;-1.27;100.00
21781;BME280;52576;53.614;9.894;2022-12-16T00:10:40;100572.44;;;-1.27;100.00
21781;BME280;52576;53.614;9.894;2022-12-16T00:11:56;100565.28;;;-1.24;100.00
21781;BME280;52576;53.614;9.894;2022-12-16T00:12:58;100567.91;;;-1.24;100.00
21781;BME280;52576;53.614;9.894;2022-12-16T00:14:11;100575.50;;;-1.21;100.00
21781;BME280;52576;53.614;9.894;2022-12-16T00:15:14;100575.50;;;-1.21;100.00
21781;BME280;52576;53.614;9.894;2022-12-16T00:16:18;100581.56;;;-1.21;100.00
21781;BME280;52576;53.614;9.894;2022-12-16T00:17:22;100578.81;;;-1.19;100.00
21781;BME280;52576;53.614;9.894;2022-12-16T00:18:24;100582.28;;;-1.19;100.00
21781;BME280;52576;53.614;9.894;2022-12-16T00:19:28;100579.66;;;-1.19;100.00
21781;BME280;52576;53.614;9.894;2022-12-16T00:20:30;100584.06;;;-1.19;100.00
21781;BME280;52576;53.614;9.894;2022-12-16T00:21:33;100584.75;;;-1.17;100.00
21781;BME280;52576;53.614;9.894;2022-12-16T00:22:35;100586.69;;;-1.19;100.00
21781;BME280;52576;53.614;9.894;2022-12-16T00:23:39;100579.66;;;-1.19;100.00
21781;BME280;52576;53.614;9.894;2022-12-16T00:24:43;100587.38;;;-1.17;100.00
21781;BME280;52576;53.614;9.894;2022-12-16T00:25:47;100578.69;;;-1.18;100.00
21781;BME280;52576;53.614;9.894;2022-12-16T00:26:50;100582.16;;;-1.17;100.00
21781;BME280;52576;53.614;9.894;2022-12-16T00:27:54;100580.31;;;-1.17;100.00
21781;BME280;52576;53.614;9.894;2022-12-16T00:29:01;100582.81;;;-1.15;100.00
21781;BME280;52576;53.614;9.894;2022-12-16T00:30:09;100573.28;;;-1.16;100.00
21781;BME280;52576;53.614;9.894;2022-12-16T00:31:11;100595.13;;;-1.16;100.00
21781;BME280;52576;53.614;9.894;2022-12-16T00:32:14;100575.91;;;-1.16;100.00
21781;BME280;52576;53.614;9.894;2022-12-16T00:33:18;100574.13;;;-1.16;100.00
21781;BME280;52576;53.614;9.894;2022-12-16T00:34:21;100577.56;;;-1.15;100.00
21781;BME280;52576;53.614;9.894;2022-12-16T00:35:24;100571.50;;;-1.16;100.00
21781;BME280;52576;53.614;9.894;2022-12-16T00:36:27;100574.13;;;-1.16;100.00
21781;BME280;52576;53.614;9.894;2022-12-16T00:37:30;100572.47;;;-1.17;100.00
21781;BME280;52576;53.614;9.894;2022-12-16T00:38:33;100577.97;;;-1.20;100.00
21781;BME280;52576;53.614;9.894;2022-12-16T00:39:37;100571.66;;;-1.17;100.00
21781;BME280;52576;53.614;9.894;2022-12-16T00:40:40;100572.59;;;-1.18;100.00
21781;BME280;52576;53.614;9.894;2022-12-16T00:41:43;100576.19;;;-1.19;100.00
21781;BME280;52576;53.614;9.894;2022-12-16T00:42:45;100578.81;;;-1.19;100.00
21781;BME280;52576;53.614;9.894;2022-12-16T00:43:49;100582.38;;;-1.20;100.00
21781;BME280;52576;53.614;9.894;2022-12-16T00:44:51;100574.41;;;-1.19;100.00
21781;BME280;52576;53.614;9.894;2022-12-16T00:45:56;100582.16;;;-1.17;100.00
21781;BME280;52576;53.614;9.894;2022-12-16T00:46:59;100586.41;;;-1.16;100.00
21781;BME280;52576;53.614;9.894;2022-12-16T00:48:02;100581.16;;;-1.16;100.00
21781;BME280;52576;53.614;9.894;2022-12-16T00:49:05;100584.50;;;-1.14;100.00
21781;BME280;52576;53.614;9.894;2022-12-16T00:50:08;100587.97;;;-1.14;100.00
21781;BME280;52576;53.614;9.894;2022-12-16T00:51:12;100586.97;;;-1.13;100.00
21781;BME280;52576;53.614;9.894;2022-12-16T00:52:15;100592.94;;;-1.11;100.00
21781;BME280;52576;53.614;9.894;2022-12-16T00:53:17;100584.22;;;-1.11;100.00
21781;BME280;52576;53.614;9.894;2022-12-16T00:54:21;100593.72;;;-1.10;100.00
21781;BME280;52576;53.614;9.894;2022-12-16T00:55:23;100592.94;;;-1.11;100.00
21781;BME280;52576;53.614;9.894;2022-12-16T00:56:26;100595.56;;;-1.11;100.00
21781;BME280;52576;53.614;9.894;2022-12-16T00:57:29;100615.56;;;-1.10;100.00
21781;BME280;52576;53.614;9.894;2022-12-16T00:58:32;100590.31;;;-1.11;100.00
21781;BME280;52576;53.614;9.894;2022-12-16T00:59:34;100594.56;;;-1.10;100.00
21781;BME280;52576;53.614;9.894;2022-12-16T01:00:38;100596.25;;;-1.09;100.00
21781;BME280;52576;53.614;9.894;2022-12-16T01:01:41;100593.63;;;-1.09;100.00
21781;BME280;52576;53.614;9.894;2022-12-16T01:02:47;100597.06;;;-1.08;100.00
21781;BME280;52576;53.614;9.894;2022-12-16T01:03:49;100601.38;;;-1.07;100.00
21781;BME280;52576;53.614;9.894;2022-12-16T01:04:53;100599.56;;;-1.07;100.00
21781;BME280;52576;53.614;9.894;2022-12-16T01:05:55;100599.56;;;-1.07;100.00
21781;BME280;52576;53.614;9.894;2022-12-16T01:06:58;100601.50;;;-1.09;100.00
21781;BME280;52576;53.614;9.894;2022-12-16T01:08:00;100602.31;;;-1.08;100.00
21781;BME280;52576;53.614;9.894;2022-12-16T01:09:03;100598.03;;;-1.09;100.00
21781;BME280;52576;53.614;9.894;2022-12-16T01:10:08;100608.66;;;-1.11;100.00
21781;BME280;52576;53.614;9.894;2022-12-16T01:11:11;100602.59;;;-1.11;100.00
21781;BME280;52576;53.614;9.894;2022-12-16T01:12:13;100603.56;;;-1.12;100.00
21781;BME280;52576;53.614;9.894;2022-12-16T01:13:16;100604.78;;;-1.16;100.00
21781;BME280;52576;53.614;9.894;2022-12-16T01:14:19;100606.31;;;-1.14;100.00
21781;BME280;52576;53.614;9.894;2022-12-16T01:15:22;100602.16;;;-1.16;100.00
21781;BME280;52576;53.614;9.894;2022-12-16T01:16:24;100610.03;;;-1.16;100.00
21781;BME280;52576;53.614;9.894;2022-12-16T01:17:29;100613.63;;;-1.17;100.00
21781;BME280;52576;53.614;9.894;2022-12-16T01:18:31;100612.91;;;-1.19;100.00
21781;BME280;52576;53.614;9.894;2022-12-16T01:19:35;100610.44;;;-1.21;100.00
21781;BME280;52576;53.614;9.894;2022-12-16T01:20:37;100619.94;;;-1.20;100.00
21781;BME280;52576;53.614;9.894;2022-12-16T01:21:41;100615.53;;;-1.19;100.00
21781;BME280;52576;53.614;9.894;2022-12-16T01:22:43;100616.25;;;-1.17;100.00
21781;BME280;52576;53.614;9.894;2022-12-16T01:23:46;100618.31;;;-1.21;100.00
21781;BME280;52576;53.614;9.894;2022-12-16T01:24:49;100623.00;;;-1.15;100.00
21781;BME280;52576;53.614;9.894;2022-12-16T01:25:54;100618.88;;;-1.17;100.00
21781;BME280;52576;53.614;9.894;2022-12-16T01:26:59;100624.69;;;-1.14;100.00
21781;BME280;52576;53.614;9.894;2022-12-16T01:28:02;100619.44;;;-1.14;100.00
21781;BME280;52576;53.614;9.894;2022-12-16T01:29:05;100615.84;;;-1.13;100.00
21781;BME280;52576;53.614;9.894;2022-12-16T01:30:11;100621.94;;;-1.12;100.00
21781;BME280;52576;53.614;9.894;2022-12-16T01:31:14;100625.34;;;-1.12;100.00
21781;BME280;52576;53.614;9.894;2022-12-16T01:32:19;100623.56;;;-1.11;100.00
21781;BME280;52576;53.614;9.894;2022-12-16T01:33:22;100634.78;;;-1.09;100.00
21781;BME280;52576;53.614;9.894;2022-12-16T01:34:26;100628.69;;;-1.10;100.00
21781;BME280;52576;53.614;9.894;2022-12-16T01:35:28;100628.53;;;-1.08;100.00
21781;BME280;52576;53.614;9.894;2022-12-16T01:36:51;100623.28;;;-1.08;100.00
21781;BME280;52576;53.614;9.894;2022-12-16T01:37:56;100625.78;;;-1.07;100.00
21781;BME280;52576;53.614;9.894;2022-12-16T01:38:58;100626.75;;;-1.08;100.00
21781;BME280;52576;53.614;9.894;2022-12-16T01:40:02;100624.13;;;-1.08;100.00
21781;BME280;52576;53.614;9.894;2022-12-16T01:41:04;100624.28;;;-1.09;100.00
21781;BME280;52576;53.614;9.894;2022-12-16T01:42:10;100632.16;;;-1.09;100.00
21781;BME280;52576;53.614;9.894;2022-12-16T01:43:13;100616.38;;;-1.19;100.00
21781;BME280;52576;53.614;9.894;2022-12-16T01:44:19;100639.31;;;-1.11;100.00
21781;BME280;52576;53.614;9.894;2022-12-16T01:45:31;100636.69;;;-1.11;100.00
21781;BME280;52576;53.614;9.894;2022-12-16T01:46:35;100641.94;;;-1.11;100.00
21781;BME280;52576;53.614;9.894;2022-12-16T01:47:39;100640.28;;;-1.12;100.00
21781;BME280;52576;53.614;9.894;2022-12-16T01:48:46;100640.16;;;-1.11;100.00
21781;BME280;52576;53.614;9.894;2022-12-16T01:49:56;100642.91;;;-1.12;100.00
21781;BME280;52576;53.614;9.894;2022-12-16T01:51:03;100644.56;;;-1.11;100.00
21781;BME280;52576;53.614;9.894;2022-12-16T01:52:11;100640.28;;;-1.12;100.00
21781;BME280;52576;53.614;9.894;2022-12-16T01:53:17;100651.72;;;-1.13;100.00
21781;BME280;52576;53.614;9.894;2022-12-16T01:54:23;100641.22;;;-1.13;100.00
21781;BME280;52576;53.614;9.894;2022-12-16T01:55:31;100643.84;;;-1.13;100.00
21781;BME280;52576;53.614;9.894;2022-12-16T01:56:35;100646.63;;;-1.15;100.00
21781;BME280;52576;53.614;9.894;2022-12-16T01:57:41;100642.34;;;-1.16;100.00
21781;BME280;52576;53.614;9.894;2022-12-16T01:58:48;100635.41;;;-1.17;100.00
21781;BME280;52576;53.614;9.894;2022-12-16T01:59:53;100645.09;;;-1.17;100.00
21781;BME280;52576;53.614;9.894;2022-12-16T02:00:57;100637.38;;;-1.19;100.00
21781;BME280;52576;53.614;9.894;2022-12-16T02:02:01;100634.75;;;-1.19;100.00
21781;BME280;52576;53.614;9.894;2022-12-16T02:03:04;100640.00;;;-1.19;100.00
21781;BME280;52576;53.614;9.894;2022-12-16T02:04:11;100640.00;;;-1.19;100.00
21781;BME280;52576;53.614;9.894;2022-12-16T02:05:14;100643.81;;;-1.23;100.00
21781;BME280;52576;53.614;9.894;2022-12-16T02:06:23;100641.78;;;-1.19;100.00
21781;BME280;52576;53.614;9.894;2022-12-16T02:07:26;100640.94;;;-1.20;100.00
21781;BME280;52576;53.614;9.894;2022-12-16T02:08:29;100645.34;;;-1.20;100.00
21781;BME280;52576;53.614;9.894;2022-12-16T02:09:31;100634.03;;;-1.21;100.00
21781;BME280;52576;53.614;9.894;2022-12-16T02:10:46;100636.78;;;-1.22;100.00
21781;BME280;52576;53.614;9.894;2022-12-16T02:12:12;100623.81;;;-1.24;100.00
21781;BME280;52576;53.614;9.894;2022-12-16T02:13:23;100629.16;;;-1.26;100.00
21781;BME280;52576;53.614;9.894;2022-12-16T02:14:39;100629.88;;;-1.23;100.00
21781;BME280;52576;53.614;9.894;2022-12-16T02:15:55;100638.72;;;-1.24;100.00
21781;BME280;52576;53.614;9.894;2022-12-16T02:17:02;100638.72;;;-1.24;100.00
21781;BME280;52576;53.614;9.894;2022-12-16T02:18:14;100638.72;;;-1.24;100.00
21781;BME280;52576;53.614;9.894;2022-12-16T02:19:56;100640.50;;;-1.25;100.00
21781;BME280;52576;53.614;9.894;2022-12-16T02:21:19;100642.28;;;-1.26;100.00
21781;BME280;52576;53.614;9.894;2022-12-16T02:22:30;100639.78;;;-1.27;100.00
21781;BME280;52576;53.614;9.894;2022-12-16T02:25:45;100641.84;;;-1.31;100.00
21781;BME280;52576;53.614;9.894;2022-12-16T02:27:04;100635.94;;;-1.33;100.00
21781;BME280;52576;53.614;9.894;2022-12-16T02:28:24;100640.31;;;-1.33;100.00
21781;BME280;52576;53.614;9.894;2022-12-16T02:29:56;100637.84;;;-1.35;100.00
21781;BME280;52576;53.614;9.894;2022-12-16T02:31:18;100647.50;;;-1.35;100.00
21781;BME280;52576;53.614;9.894;2022-12-16T02:32:26;100638.91;;;-1.37;100.00
21781;BME280;52576;53.614;9.894;2022-12-16T02:33:51;100639.06;;;-1.39;100.00
21781;BME280;52576;53.614;9.894;2022-12-16T02:35:07;100638.34;;;-1.41;100.00
21781;BME280;52576;53.614;9.894;2022-12-16T02:36:19;100636.69;;;-1.42;100.00
21781;BME280;52576;53.614;9.894;2022-12-16T02:37:30;100641.22;;;-1.44;100.00
21781;BME280;52576;53.614;9.894;2022-12-16T02:38:47;100635.19;;;-1.44;100.00
21781;BME280;52576;53.614;9.894;2022-12-16T02:39:59;100640.53;;;-1.46;100.00
21781;BME280;52576;53.614;9.894;2022-12-16T02:41:04;100643.28;;;-1.47;100.00
21781;BME280;52576;53.614;9.894;2022-12-16T02:42:12;100643.28;;;-1.47;100.00
21781;BME280;52576;53.614;9.894;2022-12-16T02:43:21;100646.88;;;-1.48;100.00
21781;BME280;52576;53.614;9.894;2022-12-16T02:44:37;100650.47;;;-1.49;100.00
21781;BME280;52576;53.614;9.894;2022-12-16T02:45:42;100642.72;;;-1.51;100.00
21781;BME280;52576;53.614;9.894;2022-12-16T02:46:53;100655.16;;;-1.53;100.00
21781;BME280;52576;53.614;9.894;2022-12-16T02:47:56;100642.97;;;-1.54;100.00
21781;BME280;52576;53.614;9.894;2022-12-16T02:49:05;100640.50;;;-1.55;100.00
21781;BME280;52576;53.614;9.894;2022-12-16T02:50:16;100642.25;;;-1.56;100.00
21781;BME280;52576;53.614;9.894;2022-12-16T02:51:20;100629.28;;;-1.57;100.00
21781;BME280;52576;53.614;9.894;2022-12-16T02:52:27;100633.84;;;-1.59;100.00
21781;BME280;52576;53.614;9.894;2022-12-16T02:53:31;100643.50;;;-1.60;100.00
21781;BME280;52576;53.614;9.894;2022-12-16T02:54:36;100633.28;;;-1.63;100.00
21781;BME280;52576;53.614;9.894;2022-12-16T02:55:49;100642.94;;;-1.63;100.00
21781;BME280;52576;53.614;9.894;2022-12-16T02:57:01;100643.06;;;-1.65;100.00
21781;BME280;52576;53.614;9.894;2022-12-16T02:58:14;100648.56;;;-1.68;100.00
21781;BME280;52576;53.614;9.894;2022-12-16T02:59:22;100646.09;;;-1.69;100.00
21781;BME280;52576;53.614;9.894;2022-12-16T03:00:31;100646.19;;;-1.71;100.00
21781;BME280;52576;53.614;9.894;2022-12-16T03:01:40;100642.88;;;-1.73;100.00
21781;BME280;52576;53.614;9.894;2022-12-16T03:02:52;100651.69;;;-1.74;100.00
21781;BME280;52576;53.614;9.894;2022-12-16T03:04:02;100646.72;;;-1.77;100.00
21781;BME280;52576;53.614;9.894;2022-12-16T03:05:11;100645.88;;;-1.77;100.00
21781;BME280;52576;53.614;9.894;2022-12-16T03:06:18;100641.72;;;-1.80;100.00
21781;BME280;52576;53.614;9.894;2022-12-16T03:07:23;100638.41;;;-1.82;100.00
21781;BME280;52576;53.614;9.894;2022-12-16T03:08:31;100641.28;;;-1.85;100.00
21781;BME280;52576;53.614;9.894;2022-12-16T03:09:37;100640.56;;;-1.87;100.00
21781;BME280;52576;53.614;9.894;2022-12-16T03:10:46;100640.84;;;-1.90;100.00
21781;BME280;52576;53.614;9.894;2022-12-16T03:11:51;100641.91;;;-1.92;100.00
21781;BME280;52576;53.614;9.894;2022-12-16T03:12:58;100636.94;;;-1.95;100.00
21781;BME280;52576;53.614;9.894;2022-12-16T03:14:04;100639.81;;;-1.98;100.00
21781;BME280;52576;53.614;9.894;2022-12-16T03:15:11;100636.47;;;-2.00;100.00
21781;BME280;52576;53.614;9.894;2022-12-16T03:16:15;100634.97;;;-2.03;100.00
21781;BME280;52576;53.614;9.894;2022-12-16T03:17:22;100649.97;;;-2.05;100.00
21781;BME280;52576;53.614;9.894;2022-12-16T03:18:27;100639.75;;;-2.08;100.00
21781;BME280;52576;53.614;9.894;2022-12-16T03:19:30;100646.91;;;-2.10;100.00
21781;BME280;52576;53.614;9.894;2022-12-16T03:20:35;100645.34;;;-2.12;100.00
21781;BME280;52576;53.614;9.894;2022-12-16T03:21:43;100647.38;;;-2.16;100.00
21781;BME280;52576;53.614;9.894;2022-12-16T03:22:50;100643.25;;;-2.18;100.00
21781;BME280;52576;53.614;9.894;2022-12-16T03:23:57;100646.81;;;-2.19;100.00
21781;BME280;52576;53.614;9.894;2022-12-16T03:25:01;100649.53;;;-2.21;100.00
21781;BME280;52576;53.614;9.894;2022-12-16T03:26:06;100643.84;;;-2.26;100.00
21781;BME280;52576;53.614;9.894;2022-12-16T03:27:13;100649.22;;;-2.27;100.00
21781;BME280;52576;53.614;9.894;2022-12-16T03:28:27;100652.22;;;-2.32;100.00
21781;BME280;52576;53.614;9.894;2022-12-16T03:29:38;100658.44;;;-2.33;100.00
21781;BME280;52576;53.614;9.894;2022-12-16T03:30:46;100650.78;;;-2.36;100.00
21781;BME280;52576;53.614;9.894;2022-12-16T03:31:54;100662.34;;;-2.38;100.00
21781;BME280;52576;53.614;9.894;2022-12-16T03:33:02;100659.03;;;-2.40;100.00
21781;BME280;52576;53.614;9.894;2022-12-16T03:34:14;100660.13;;;-2.43;100.00
21781;BME280;52576;53.614;9.894;2022-12-16T03:35:24;100662.16;;;-2.46;100.00
21781;BME280;52576;53.614;9.894;2022-12-16T03:36:33;100659.66;;;-2.48;100.00
21781;BME280;52576;53.614;9.894;2022-12-16T03:37:38;100669.53;;;-2.51;100.00
21781;BME280;52576;53.614;9.894;2022-12-16T03:38:42;100659.19;;;-2.53;100.00
21781;BME280;52576;53.614;9.894;2022-12-16T03:39:51;100662.88;;;-2.56;100.00
21781;BME280;52576;53.614;9.894;2022-12-16T03:40:55;100668.38;;;-2.59;100.00
21781;BME280;52576;53.614;9.894;2022-12-16T03:42:01;100667.53;;;-2.59;100.00
21781;BME280;52576;53.614;9.894;2022-12-16T03:43:05;100669.44;;;-2.61;100.00
21781;BME280;52576;53.614;9.894;2022-12-16T03:44:10;100673.97;;;-2.63;100.00
21781;BME280;52576;53.614;9.894;2022-12-16T03:45:15;100668.84;;;-2.65;100.00
21781;BME280;52576;53.614;9.894;2022-12-16T03:46:19;100672.53;;;-2.67;100.00
21781;BME280;52576;53.614;9.894;2022-12-16T03:47:24;100674.44;;;-2.69;100.00
21781;BME280;52576;53.614;9.894;2022-12-16T03:48:28;100669.47;;;-2.72;100.00
21781;BME280;52576;53.614;9.894;2022-12-16T03:49:32;100669.00;;;-2.77;100.00
21781;BME280;52576;53.614;9.894;2022-12-16T03:50:37;100670.91;;;-2.79;100.00
21781;BME280;52576;53.614;9.894;2022-12-16T03:51:40;100678.75;;;-2.79;100.00
21781;BME280;52576;53.614;9.894;2022-12-16T03:52:43;100679.84;;;-2.82;100.00
21781;BME280;52576;53.614;9.894;2022-12-16T03:53:46;100680.31;;;-2.88;100.00
21781;BME280;52576;53.614;9.894;2022-12-16T03:54:50;100673.28;;;-2.87;100.00
21781;BME280;52576;53.614;9.894;2022-12-16T03:55:53;100683.03;;;-2.89;100.00
21781;BME280;52576;53.614;9.894;2022-12-16T03:56:56;100681.38;;;-2.90;100.00
21781;BME280;52576;53.614;9.894;2022-12-16T03:57:58;100677.34;;;-2.94;100.00
21781;BME280;52576;53.614;9.894;2022-12-16T03:59:01;100675.09;;;-2.99;100.00
21781;BME280;52576;53.614;9.894;2022-12-16T04:00:05;100681.16;;;-2.98;100.00
21781;BME280;52576;53.614;9.894;2022-12-16T04:01:13;100680.44;;;-3.00;100.00
21781;BME280;52576;53.614;9.894;2022-12-16T04:02:16;100680.56;;;-3.02;100.00
21781;BME280;52576;53.614;9.894;2022-12-16T04:03:19;100680.78;;;-3.05;100.00
21781;BME280;52576;53.614;9.894;2022-12-16T04:04:24;100680.22;;;-3.08;100.00
21781;BME280;52576;53.614;9.894;2022-12-16T04:05:28;100678.53;;;-3.09;100.00
21781;BME280;52576;53.614;9.894;2022-12-16T04:06:31;100686.50;;;-3.11;100.00
21781;BME280;52576;53.614;9.894;2022-12-16T04:07:34;100683.16;;;-3.13;100.00
21781;BME280;52576;53.614;9.894;2022-12-16T04:08:36;100677.22;;;-3.15;100.00
21781;BME280;52576;53.614;9.894;2022-12-16T04:09:40;100677.34;;;-3.16;100.00
21781;BME280;52576;53.614;9.894;2022-12-16T04:10:42;100691.38;;;-3.17;100.00
21781;BME280;52576;53.614;9.894;2022-12-16T04:12:03;100689.94;;;-3.21;100.00
21781;BME280;52576;53.614;9.894;2022-12-16T04:13:24;100692.66;;;-3.23;100.00
21781;BME280;52576;53.614;9.894;2022-12-16T04:14:45;100692.06;;;-3.26;100.00
21781;BME280;52576;53.614;9.894;2022-12-16T04:16:17;100693.16;;;-3.29;100.00
21781;BME280;52576;53.614;9.894;2022-12-16T04:17:38;100695.88;;;-3.30;100.00
21781;BME280;52576;53.614;9.894;2022-12-16T04:18:59;100694.44;;;-3.34;100.00
21781;BME280;52576;53.614;9.894;2022-12-16T04:20:19;100698.03;;;-3.35;100.00
21781;BME280;52576;53.614;9.894;2022-12-16T04:21:43;100702.53;;;-3.37;100.00
21781;BME280;52576;53.614;9.894;2022-12-16T04:23:04;100702.78;;;-3.40;100.00
21781;BME280;52576;53.614;9.894;2022-12-16T04:24:26;100694.94;;;-3.40;100.00
21781;BME280;52576;53.614;9.894;2022-12-16T04:25:32;100705.50;;;-3.42;100.00
21781;BME280;52576;53.614;9.894;2022-12-16T04:26:36;100689.94;;;-3.43;100.00
21781;BME280;52576;53.614;9.894;2022-12-16T04:27:53;100697.06;;;-3.45;100.00
21781;BME280;52576;53.614;9.894;2022-12-16T04:28:59;100702.28;;;-3.45;100.00
21781;BME280;52576;53.614;9.894;2022-12-16T04:30:01;100702.53;;;-3.48;100.00
21781;BME280;52576;53.614;9.894;2022-12-16T04:31:23;100704.28;;;-3.49;100.00
21781;BME280;52576;53.614;9.894;2022-12-16T04:32:25;100702.63;;;-3.50;100.00
21781;BME280;52576;53.614;9.894;2022-12-16T04:33:49;100710.56;;;-3.51;100.00
21781;BME280;52576;53.614;9.894;2022-12-16T04:35:09;100713.31;;;-3.53;100.00
21781;BME280;52576;53.614;9.894;2022-12-16T04:36:26;100711.78;;;-3.55;100.00
21781;BME280;52576;53.614;9.894;2022-12-16T04:37:48;100710.81;;;-3.54;100.00
21781;BME280;52576;53.614;9.894;2022-12-16T04:39:09;100710.09;;;-3.56;100.00
21781;BME280;52576;53.614;9.894;2022-12-16T04:40:29;100715.31;;;-3.56;100.00
21781;BME280;52576;53.614;9.894;2022-12-16T04:41:51;100703.22;;;-3.57;100.00
21781;BME280;52576;53.614;9.894;2022-12-16T04:43:12;100717.94;;;-3.56;100.00
21781;BME280;52576;53.614;9.894;2022-12-16T04:44:33;100711.03;;;-3.57;100.00
21781;BME280;52576;53.614;9.894;2022-12-16T04:45:54;100719.00;;;-3.59;100.00
21781;BME280;52576;53.614;9.894;2022-12-16T04:47:23;100713.28;;;-3.64;100.00
21781;BME280;52576;53.614;9.894;2022-12-16T04:48:43;100724.34;;;-3.60;100.00
21781;BME280;52576;53.614;9.894;2022-12-16T04:50:05;100727.06;;;-3.62;100.00
21781;BME280;52576;53.614;9.894;2022-12-16T04:51:25;100721.00;;;-3.62;100.00
21781;BME280;52576;53.614;9.894;2022-12-16T04:52:50;100721.00;;;-3.62;100.00
21781;BME280;52576;53.614;9.894;2022-12-16T04:54:11;100721.13;;;-3.64;100.00
21781;BME280;52576;53.614;9.894;2022-12-16T04:55:32;100727.28;;;-3.65;100.00
21781;BME280;52576;53.614;9.894;2022-12-16T04:57:06;100725.63;;;-3.66;100.00
21781;BME280;52576;53.614;9.894;2022-12-16T04:58:26;100720.53;;;-3.67;100.00
21781;BME280;52576;53.614;9.894;2022-12-16T04:59:47;100732.63;;;-3.66;100.00
21781;BME280;52576;53.614;9.894;2022-12-16T05:01:19;100730.00;;;-3.66;100.00
21781;BME280;52576;53.614;9.894;2022-12-16T05:02:40;100730.97;;;-3.67;100.00
21781;BME280;52576;53.614;9.894;2022-12-16T05:04:01;100736.19;;;-3.67;100.00
21781;BME280;52576;53.614;9.894;2022-12-16T05:05:22;100733.59;;;-3.67;100.00
21781;BME280;52576;53.614;9.894;2022-12-16T05:06:42;100730.97;;;-3.67;100.00
21781;BME280;52576;53.614;9.894;2022-12-16T05:08:04;100735.34;;;-3.68;100.00
21781;BME280;52576;53.614;9.894;2022-12-16T05:09:24;100733.47;;;-3.66;100.00
21781;BME280;52576;53.614;9.894;2022-12-16T05:10:59;100733.59;;;-3.67;100.00
21781;BME280;52576;53.614;9.894;2022-12-16T05:12:20;100741.19;;;-3.64;100.00
21781;BME280;52576;53.614;9.894;2022-12-16T05:13:41;100748.09;;;-3.63;100.00
21781;BME280;52576;53.614;9.894;2022-12-16T05:15:01;100743.69;;;-3.63;100.00
21781;BME280;52576;53.614;9.894;2022-12-16T05:16:33;100741.91;;;-3.62;100.00
21781;BME280;52576;53.614;9.894;2022-12-16T05:17:53;100745.50;;;-3.63;100.00
21781;BME280;52576;53.614;9.894;2022-12-16T05:19:14;100744.53;;;-3.62;100.00
21781;BME280;52576;53.614;9.894;2022-12-16T05:20:35;100750.72;;;-3.63;100.00
21781;BME280;52576;53.614;9.894;2022-12-16T05:21:56;100742.88;;;-3.63;100.00
21781;BME280;52576;53.614;9.894;2022-12-16T05:23:18;100744.66;;;-3.64;100.00
21781;BME280;52576;53.614;9.894;2022-12-16T05:24:39;100754.13;;;-3.63;100.00
21781;BME280;52576;53.614;9.894;2022-12-16T05:26:00;100752.38;;;-3.62;100.00
21781;BME280;52576;53.614;9.894;2022-12-16T05:27:20;100753.22;;;-3.62;100.00
21781;BME280;52576;53.614;9.894;2022-12-16T05:28:41;100758.31;;;-3.60;100.00
21781;BME280;52576;53.614;9.894;2022-12-16T05:30:03;100762.59;;;-3.59;100.00
21781;BME280;52576;53.614;9.894;2022-12-16T05:31:24;100767.56;;;-3.56;100.00
21781;BME280;52576;53.614;9.894;2022-12-16T05:32:47;100761.53;;;-3.57;100.00
21781;BME280;52576;53.614;9.894;2022-12-16T05:34:10;100764.03;;;-3.55;100.00
21781;BME280;52576;53.614;9.894;2022-12-16T05:35:31;100764.84;;;-3.55;100.00
21781;BME280;52576;53.614;9.894;2022-12-16T05:36:52;100767.38;;;-3.53;100.00
21781;BME280;52576;53.614;9.894;2022-12-16T05:38:13;100762.13;;;-3.53;100.00
21781;BME280;52576;53.614;9.894;2022-12-16T05:39:35;100780.31;;;-3.52;100.00
21781;BME280;52576;53.614;9.894;2022-12-16T05:40:56;100774.00;;;-3.49;100.00
21781;BME280;52576;53.614;9.894;2022-12-16T05:42:16;100771.41;;;-3.49;100.00
21781;BME280;52576;53.614;9.894;2022-12-16T05:43:37;100775.56;;;-3.47;100.00
21781;BME280;52576;53.614;9.894;2022-12-16T05:44:58;100779.00;;;-3.46;100.00
21781;BME280;52576;53.614;9.894;2022-12-16T05:46:30;100781.63;;;-3.46;100.00
21781;BME280;52576;53.614;9.894;2022-12-16T05:47:50;100780.69;;;-3.45;100.00
21781;BME280;52576;53.614;9.894;2022-12-16T05:49:11;100781.50;;;-3.45;100.00
21781;BME280;52576;53.614;9.894;2022-12-16T05:50:32;100783.19;;;-3.44;100.00
21781;BME280;52576;53.614;9.894;2022-12-16T05:51:53;100782.22;;;-3.43;100.00
21781;BME280;52576;53.614;9.894;2022-12-16T05:53:13;100784.72;;;-3.41;100.00
21781;BME280;52576;53.614;9.894;2022-12-16T05:54:36;100779.50;;;-3.41;100.00
21781;BME280;52576;53.614;9.894;2022-12-16T05:55:56;100786.16;;;-3.37;100.00
21781;BME280;52576;53.614;9.894;2022-12-16T05:57:17;100786.16;;;-3.37;100.00
21781;BME280;52576;53.614;9.894;2022-12-16T05:58:37;100792.13;;;-3.35;100.00
21781;BME280;52576;53.614;9.894;2022-12-16T05:59:58;100792.94;;;-3.35;100.00
21781;BME280;52576;53.614;9.894;2022-12-16T06:01:19;100794.63;;;-3.34;100.00
21781;BME280;52576;53.614;9.894;2022-12-16T06:02:51;100794.50;;;-3.32;100.00
21781;BME280;52576;53.614;9.894;2022-12-16T06:04:12;100800.56;;;-3.32;100.00
21781;BME280;52576;53.614;9.894;2022-12-16T06:05:33;100799.72;;;-3.32;100.00